Acadia Natl Park, Maine
Current Conditions -  °F | °C
As of 8:55 AM on Thursday 23 Oct 2014 (Local Time) from KBHB Reporting Station
Overcast Overcast  
Wind Chill: 52°   Ceiling: 1000
Heat Index: 52°   Visibility: 8mi
Dew Point: 50°   Wind: 21mph
Humidity: 94%   Direction: 40°NE
Pressure: 29.87"   Gusts: 31mph
Location:  44.3°N, 68.25°W
Report Text: KBHB 231255Z AUTO 04018G27KT 8SM OVC010 11/10 A2987 RMK AO1 P0009
Loading
Personal Weather Stations






























Interactive Weather Map
Tropical Storm Tracking
New forecast layout! Learn more

10-Day Weather Forecast

Advertisements
Track Severe Weather on mobile